AirNav   Everest Fuels
 
 1285 users online  

9FA8 Baptist Hospital Heliport
Miami, Florida, USA

GOING TO MIAMI?


FAA INFORMATION EFFECTIVE 05 DECEMBER 2019

Location

FAA Identifier: 9FA8
Lat/Long: 25-41-09.8700N 080-20-18.5200W
25-41.164500N 080-20.308667W
25.6860750,-80.3384778
(estimated)
Elevation: 9 ft. / 3 m (estimated)
Variation: 03W (1985)
From city: 10 miles SW of MIAMI, FL
Time zone: UTC -5 (UTC -4 during Daylight Saving Time)
Zip code: 33156

Heliport Operations

Heliport use: Private use, MEDICAL.
Activation date: 05/1964
Control tower: no
ARTCC: MIAMI CENTER
FSS: MIAMI FLIGHT SERVICE STATION
Attendance: CONTINUOUS
Wind indicator: yes
Segmented circle: no
Lights: FOR PERIMETER LGTS CALL 305-596-1960.
Beacon: white-green-yellow (heliport)
FOR ROTG BCN CALL 305-596-1960.

Heliport Communications

WX ASOS at TMB (6 nm SW): PHONE 305-235-1332
WX ASOS at MIA (7 nm N): PHONE 305-870-0235
WX ASOS at OPF (14 nm N): 125.9 (305-681-4063)
WX AWOS-3 at X51 (16 nm SW): 118.375 ((305) 247-2791)
WX ASOS at HWO (20 nm N): PHONE 954-983-5904

Nearby radio navigation aids

VOR radial/distance  VOR name  Freq  Var
DHPr179/6.9DOLPHIN VORTAC113.9004W
VKZr252/10.7VIRGINIA KEY VOR/DME117.1004W
FLLr208/25.1FORT LAUDERDALE VOR/DME114.4006W

Heliport Services

Airframe service: NONE
Powerplant service: NONE

Runway Information

Helipad H1

Dimensions: 75 x 75 ft. / 23 x 23 m
Surface: asphalt, in fair condition
Runway edge lights: PERI
Latitude: 25-41.164500N
Longitude: 080-20.308667W
Elevation: 9.0 ft.
Traffic pattern: leftleft
Markings: none, in fair condition

Heliport Ownership and Management from official FAA records

Ownership: Privately-owned
Owner: BAPTIST HOSPITAL
8900 SW 88TH ST
MIAMI, FL 33176
Phone 786-596-1960
Manager: RICHARD D SCHREINER
BAPTIST HOSPITAL, 8900 SW 88TH ST
MIAMI, FL 33176
Phone 786-596-6509
ASSOCIATE ADMINISTRATOR

Additional Remarks

A52-H1 50' TREES 400' W, 50' TREES 50' S, 100' BLDG 140' E, 75' TWR 600' E.
HELIPORT CLSD TIL 31 MAY 1992.
FOR CD CTC MIAMI APCH AT 305-869-5432.

Instrument Procedures

There are no published instrument procedures at 9FA8.

Some nearby airports with instrument procedures:

KTMB - Miami Executive Airport (6 nm SW)
KMIA - Miami International Airport (7 nm N)
KHST - Homestead Air Reserve Base (12 nm S)
KOPF - Miami-Opa Locka Executive Airport (14 nm N)
X51 - Miami Homestead General Aviation Airport (16 nm SW)
KHWO - North Perry Airport (20 nm N)
 
Loc | Ops | Rwys | IFR | FBO | Links
Com | Nav | Svcs | Stats | Notes

Reliance Aviation
AirBoss

 
Area around 9FA8 (Baptist Hospital Heliport)
 
Road maps at: MapQuest Bing Google
 
Aerial photo
No photo
 
Sectional chart

 
Airport distance calculator
Flying to Baptist Hospital Heliport? Find the distance to fly.

From to 9FA8

Sunrise and sunset
Times for 06-Dec-2019
 Local
(UTC-5)
 Zulu
(UTC)
Morning civil twilight06:3011:30
Sunrise06:5511:55
Sunset17:3022:30
Evening civil twilight17:5422:54

Current date and time
Zulu (UTC)  06-Dec-2019 15:11:45
Local (UTC-5)  06-Dec-2019 10:11:45
 
METAR
KTMB 
6nm SW 
061453Z 03004KT 10SM CLR 23/15 A3019 RMK AO2 SLP221 T02280150 51009
KMIA 
6nm N 
061453Z 03004KT 10SM FEW045 SCT250 23/13 A3019 RMK AO2 SLP224 T02280133 51010
KHST 
13nm S 
061456Z AUTO 03004KT 10SM CLR 22/15 A3017 RMK AO2 SLP220 T02220150 52011
KOPF 
14nm N 
061453Z 35003KT 10SM CLR 22/15 A3020 RMK AO2 SLP227 T02220150 52012 $
KHWO 
20nm N 
061453Z 34004KT 10SM CLR 23/14 A3020 RMK AO2 SLP227 T02280139 51010 $
TAF
KTMB 
6nm SW 
061122Z 0612/0712 VRB03KT P6SM SCT250 FM061600 12006KT P6SM FEW250 FM070000 VRB03KT P6SM FEW250
KMIA 
6nm N 
061122Z 0612/0718 35005KT P6SM SCT250 FM061600 12008KT P6SM FEW035 SCT250 FM070000 VRB03KT P6SM SCT250 FM071600 09008KT P6SM SCT250
KHST 
13nm S 
061200Z 0612/0718 35006KT 9999 FEW050 QNH3011INS BECMG 0702/0703 VRB06KT 9999 BKN030 QNH3014INS BECMG 0708/0709 VRB06KT 9999 SCT020 QNH3011INS TX23/0618Z TN12/0612Z
KOPF 
14nm N 
061122Z 0612/0712 35005KT P6SM SCT250 FM061600 12006KT P6SM FEW035 SCT250 FM070000 VRB03KT P6SM SCT250
NOTAMs
Click for the latest NOTAMs
NOTAMs are issued by the DoD/FAA and will open in a separate window not controlled by AirNav.

 

 
 

Would you like to see your business listed on this page?

 If your business provides an interesting product or service to pilots, flight crews, aircraft, or users of the Baptist Hospital Heliport, you should consider listing it here.  To start the listing process, click on the button below
 
Add a business
 

Other Pages about Baptist Hospital Heliport

Update a link
 
Copyright © AirNav, LLC. All rights reserved. Privacy Policy  Contact